sensor_id;sensor_type;location;lat;lon;timestamp;P1;durP1;ratioP1;P2;durP2;ratioP2
3849;SDS011;1940;51.052;13.678;2022-12-07T00:01:35;12.63;;;6.83;;
3849;SDS011;1940;51.052;13.678;2022-12-07T00:04:05;11.40;;;6.77;;
3849;SDS011;1940;51.052;13.678;2022-12-07T00:06:33;12.97;;;6.73;;
3849;SDS011;1940;51.052;13.678;2022-12-07T00:09:04;12.53;;;6.80;;
3849;SDS011;1940;51.052;13.678;2022-12-07T00:11:31;13.63;;;7.70;;
3849;SDS011;1940;51.052;13.678;2022-12-07T00:13:57;10.67;;;6.27;;
3849;SDS011;1940;51.052;13.678;2022-12-07T00:16:26;11.00;;;6.53;;
3849;SDS011;1940;51.052;13.678;2022-12-07T00:18:54;11.50;;;6.60;;
3849;SDS011;1940;51.052;13.678;2022-12-07T00:21:21;12.53;;;6.93;;
3849;SDS011;1940;51.052;13.678;2022-12-07T00:23:58;13.60;;;7.40;;
3849;SDS011;1940;51.052;13.678;2022-12-07T00:26:26;11.20;;;6.40;;
3849;SDS011;1940;51.052;13.678;2022-12-07T00:28:57;12.27;;;6.97;;
3849;SDS011;1940;51.052;13.678;2022-12-07T00:31:26;12.60;;;6.83;;
3849;SDS011;1940;51.052;13.678;2022-12-07T00:33:53;12.73;;;6.67;;
3849;SDS011;1940;51.052;13.678;2022-12-07T00:36:20;14.20;;;7.00;;
3849;SDS011;1940;51.052;13.678;2022-12-07T00:38:48;16.60;;;7.17;;
3849;SDS011;1940;51.052;13.678;2022-12-07T00:41:14;13.43;;;6.90;;
3849;SDS011;1940;51.052;13.678;2022-12-07T00:43:42;16.53;;;6.97;;
3849;SDS011;1940;51.052;13.678;2022-12-07T00:46:08;12.90;;;6.87;;
3849;SDS011;1940;51.052;13.678;2022-12-07T00:48:34;12.27;;;6.60;;
3849;SDS011;1940;51.052;13.678;2022-12-07T00:50:59;11.87;;;6.90;;
3849;SDS011;1940;51.052;13.678;2022-12-07T00:53:26;12.97;;;7.33;;
3849;SDS011;1940;51.052;13.678;2022-12-07T00:55:52;14.73;;;6.80;;
3849;SDS011;1940;51.052;13.678;2022-12-07T00:58:18;17.77;;;6.93;;
3849;SDS011;1940;51.052;13.678;2022-12-07T01:00:44;14.20;;;6.47;;
3849;SDS011;1940;51.052;13.678;2022-12-07T01:03:11;13.10;;;7.20;;
3849;SDS011;1940;51.052;13.678;2022-12-07T01:05:38;15.13;;;7.60;;
3849;SDS011;1940;51.052;13.678;2022-12-07T01:08:03;15.03;;;7.50;;
3849;SDS011;1940;51.052;13.678;2022-12-07T01:10:29;12.40;;;6.87;;
3849;SDS011;1940;51.052;13.678;2022-12-07T01:12:56;13.93;;;7.30;;
3849;SDS011;1940;51.052;13.678;2022-12-07T01:15:22;13.30;;;7.20;;
3849;SDS011;1940;51.052;13.678;2022-12-07T01:17:48;13.00;;;7.73;;
3849;SDS011;1940;51.052;13.678;2022-12-07T01:20:13;14.40;;;7.40;;
3849;SDS011;1940;51.052;13.678;2022-12-07T01:22:41;16.17;;;7.50;;
3849;SDS011;1940;51.052;13.678;2022-12-07T01:25:07;13.27;;;7.10;;
3849;SDS011;1940;51.052;13.678;2022-12-07T01:27:34;16.03;;;7.57;;
3849;SDS011;1940;51.052;13.678;2022-12-07T01:30:00;15.57;;;7.73;;
3849;SDS011;1940;51.052;13.678;2022-12-07T01:32:28;12.70;;;7.03;;
3849;SDS011;1940;51.052;13.678;2022-12-07T01:34:54;13.73;;;7.87;;
3849;SDS011;1940;51.052;13.678;2022-12-07T01:37:19;17.17;;;7.53;;
3849;SDS011;1940;51.052;13.678;2022-12-07T01:39:48;14.53;;;6.43;;
3849;SDS011;1940;51.052;13.678;2022-12-07T01:42:14;13.17;;;6.57;;
3849;SDS011;1940;51.052;13.678;2022-12-07T01:47:51;11.60;;;6.43;;
3849;SDS011;1940;51.052;13.678;2022-12-07T01:50:20;13.03;;;7.00;;
3849;SDS011;1940;51.052;13.678;2022-12-07T01:52:49;12.13;;;6.97;;
3849;SDS011;1940;51.052;13.678;2022-12-07T01:55:16;14.07;;;6.73;;
3849;SDS011;1940;51.052;13.678;2022-12-07T01:57:43;12.07;;;6.20;;
3849;SDS011;1940;51.052;13.678;2022-12-07T02:00:15;12.50;;;6.60;;
3849;SDS011;1940;51.052;13.678;2022-12-07T02:02:43;15.60;;;6.50;;
3849;SDS011;1940;51.052;13.678;2022-12-07T02:05:22;9.47;;;5.73;;
3849;SDS011;1940;51.052;13.678;2022-12-07T02:07:49;10.20;;;6.17;;
3849;SDS011;1940;51.052;13.678;2022-12-07T02:10:19;9.23;;;5.60;;
3849;SDS011;1940;51.052;13.678;2022-12-07T02:12:48;9.90;;;5.40;;
3849;SDS011;1940;51.052;13.678;2022-12-07T02:15:41;10.13;;;5.50;;
3849;SDS011;1940;51.052;13.678;2022-12-07T02:18:32;9.13;;;5.13;;
3849;SDS011;1940;51.052;13.678;2022-12-07T02:21:29;9.23;;;5.43;;
3849;SDS011;1940;51.052;13.678;2022-12-07T02:26:55;9.90;;;5.40;;
3849;SDS011;1940;51.052;13.678;2022-12-07T02:33:00;11.27;;;5.53;;
3849;SDS011;1940;51.052;13.678;2022-12-07T02:35:39;12.60;;;5.40;;
3849;SDS011;1940;51.052;13.678;2022-12-07T02:38:17;9.37;;;5.37;;
3849;SDS011;1940;51.052;13.678;2022-12-07T02:40:55;9.23;;;5.10;;
3849;SDS011;1940;51.052;13.678;2022-12-07T02:43:37;8.60;;;4.90;;
3849;SDS011;1940;51.052;13.678;2022-12-07T02:46:11;12.33;;;6.20;;
3849;SDS011;1940;51.052;13.678;2022-12-07T02:48:41;10.43;;;5.60;;
3849;SDS011;1940;51.052;13.678;2022-12-07T02:51:08;9.87;;;5.97;;
3849;SDS011;1940;51.052;13.678;2022-12-07T02:53:37;12.80;;;5.90;;
3849;SDS011;1940;51.052;13.678;2022-12-07T02:56:13;15.13;;;5.93;;
3849;SDS011;1940;51.052;13.678;2022-12-07T03:01:35;12.40;;;6.77;;
3849;SDS011;1940;51.052;13.678;2022-12-07T03:06:50;13.50;;;6.70;;
3849;SDS011;1940;51.052;13.678;2022-12-07T03:12:16;12.53;;;6.57;;
3849;SDS011;1940;51.052;13.678;2022-12-07T03:14:48;11.60;;;6.97;;
3849;SDS011;1940;51.052;13.678;2022-12-07T03:17:24;13.43;;;7.03;;
3849;SDS011;1940;51.052;13.678;2022-12-07T03:19:53;13.40;;;7.20;;
3849;SDS011;1940;51.052;13.678;2022-12-07T03:22:21;11.13;;;6.37;;
3849;SDS011;1940;51.052;13.678;2022-12-07T03:24:55;12.77;;;7.17;;
3849;SDS011;1940;51.052;13.678;2022-12-07T03:27:24;11.07;;;6.50;;
3849;SDS011;1940;51.052;13.678;2022-12-07T03:29:59;12.10;;;7.13;;
3849;SDS011;1940;51.052;13.678;2022-12-07T03:32:43;11.90;;;7.30;;
3849;SDS011;1940;51.052;13.678;2022-12-07T03:35:19;17.57;;;8.27;;
3849;SDS011;1940;51.052;13.678;2022-12-07T03:40:40;14.60;;;8.20;;
3849;SDS011;1940;51.052;13.678;2022-12-07T03:43:14;17.07;;;7.80;;
3849;SDS011;1940;51.052;13.678;2022-12-07T03:45:42;20.23;;;8.20;;
3849;SDS011;1940;51.052;13.678;2022-12-07T03:50:42;14.90;;;7.90;;
3849;SDS011;1940;51.052;13.678;2022-12-07T03:53:24;12.73;;;7.20;;
3849;SDS011;1940;51.052;13.678;2022-12-07T03:55:59;16.87;;;7.87;;
3849;SDS011;1940;51.052;13.678;2022-12-07T03:58:26;18.33;;;8.10;;
3849;SDS011;1940;51.052;13.678;2022-12-07T04:00:54;13.47;;;6.77;;
3849;SDS011;1940;51.052;13.678;2022-12-07T04:03:20;14.07;;;7.17;;
3849;SDS011;1940;51.052;13.678;2022-12-07T04:05:46;15.30;;;7.37;;
3849;SDS011;1940;51.052;13.678;2022-12-07T04:08:11;14.30;;;7.20;;
3849;SDS011;1940;51.052;13.678;2022-12-07T04:10:37;16.00;;;6.87;;
3849;SDS011;1940;51.052;13.678;2022-12-07T04:13:03;15.73;;;6.47;;
3849;SDS011;1940;51.052;13.678;2022-12-07T04:15:28;13.03;;;6.93;;
3849;SDS011;1940;51.052;13.678;2022-12-07T04:17:54;13.10;;;7.50;;
3849;SDS011;1940;51.052;13.678;2022-12-07T04:20:19;13.03;;;6.53;;
3849;SDS011;1940;51.052;13.678;2022-12-07T04:22:45;13.97;;;6.90;;
3849;SDS011;1940;51.052;13.678;2022-12-07T04:25:11;9.90;;;5.70;;
3849;SDS011;1940;51.052;13.678;2022-12-07T04:27:37;12.73;;;6.80;;
3849;SDS011;1940;51.052;13.678;2022-12-07T04:30:03;12.23;;;6.37;;
3849;SDS011;1940;51.052;13.678;2022-12-07T04:32:29;15.43;;;6.90;;
3849;SDS011;1940;51.052;13.678;2022-12-07T04:34:55;12.70;;;6.30;;
3849;SDS011;1940;51.052;13.678;2022-12-07T04:37:21;10.47;;;5.97;;
3849;SDS011;1940;51.052;13.678;2022-12-07T04:39:47;13.47;;;6.20;;
3849;SDS011;1940;51.052;13.678;2022-12-07T04:42:12;10.80;;;5.90;;
3849;SDS011;1940;51.052;13.678;2022-12-07T04:44:38;9.43;;;5.80;;
3849;SDS011;1940;51.052;13.678;2022-12-07T04:47:04;10.90;;;5.70;;
3849;SDS011;1940;51.052;13.678;2022-12-07T04:49:29;12.07;;;5.90;;
3849;SDS011;1940;51.052;13.678;2022-12-07T04:51:55;10.17;;;5.60;;
3849;SDS011;1940;51.052;13.678;2022-12-07T04:54:21;10.80;;;5.77;;
3849;SDS011;1940;51.052;13.678;2022-12-07T04:56:46;8.63;;;4.90;;
3849;SDS011;1940;51.052;13.678;2022-12-07T04:59:12;8.80;;;5.00;;
3849;SDS011;1940;51.052;13.678;2022-12-07T05:01:38;9.43;;;5.43;;
3849;SDS011;1940;51.052;13.678;2022-12-07T05:04:04;10.43;;;5.50;;
3849;SDS011;1940;51.052;13.678;2022-12-07T05:06:30;14.60;;;5.87;;
3849;SDS011;1940;51.052;13.678;2022-12-07T05:08:56;10.33;;;5.23;;
3849;SDS011;1940;51.052;13.678;2022-12-07T05:11:22;8.00;;;5.07;;
3849;SDS011;1940;51.052;13.678;2022-12-07T05:14:03;8.67;;;4.73;;
3849;SDS011;1940;51.052;13.678;2022-12-07T05:16:31;13.30;;;5.43;;
3849;SDS011;1940;51.052;13.678;2022-12-07T05:18:56;10.97;;;5.60;;
3849;SDS011;1940;51.052;13.678;2022-12-07T05:21:22;7.13;;;4.47;;
3849;SDS011;1940;51.052;13.678;2022-12-07T05:23:48;7.43;;;4.50;;
3849;SDS011;1940;51.052;13.678;2022-12-07T05:26:14;10.80;;;4.50;;
3849;SDS011;1940;51.052;13.678;2022-12-07T05:28:40;8.97;;;4.83;;
3849;SDS011;1940;51.052;13.678;2022-12-07T05:31:05;14.60;;;5.03;;
3849;SDS011;1940;51.052;13.678;2022-12-07T05:33:31;17.00;;;5.07;;
3849;SDS011;1940;51.052;13.678;2022-12-07T05:35:56;24.67;;;4.70;;
3849;SDS011;1940;51.052;13.678;2022-12-07T05:38:23;8.17;;;4.60;;
3849;SDS011;1940;51.052;13.678;2022-12-07T05:40:49;8.67;;;4.50;;
3849;SDS011;1940;51.052;13.678;2022-12-07T05:43:15;12.10;;;6.30;;
3849;SDS011;1940;51.052;13.678;2022-12-07T05:45:41;13.70;;;6.97;;
3849;SDS011;1940;51.052;13.678;2022-12-07T05:48:06;15.97;;;7.97;;
3849;SDS011;1940;51.052;13.678;2022-12-07T05:50:32;12.87;;;7.40;;
3849;SDS011;1940;51.052;13.678;2022-12-07T05:52:57;13.00;;;7.97;;
3849;SDS011;1940;51.052;13.678;2022-12-07T05:55:23;17.17;;;9.47;;
3849;SDS011;1940;51.052;13.678;2022-12-07T05:57:48;13.20;;;7.90;;
3849;SDS011;1940;51.052;13.678;2022-12-07T06:00:33;8.87;;;5.07;;
3849;SDS011;1940;51.052;13.678;2022-12-07T06:02:58;13.13;;;6.77;;
3849;SDS011;1940;51.052;13.678;2022-12-07T06:05:24;11.90;;;5.50;;
3849;SDS011;1940;51.052;13.678;2022-12-07T06:07:49;13.90;;;6.23;;
3849;SDS011;1940;51.052;13.678;2022-12-07T06:10:15;10.30;;;5.93;;
3849;SDS011;1940;51.052;13.678;2022-12-07T06:12:40;8.27;;;4.50;;
3849;SDS011;1940;51.052;13.678;2022-12-07T06:15:08;6.90;;;4.20;;
3849;SDS011;1940;51.052;13.678;2022-12-07T06:17:34;7.67;;;4.57;;
3849;SDS011;1940;51.052;13.678;2022-12-07T06:20:00;9.07;;;4.70;;
3849;SDS011;1940;51.052;13.678;2022-12-07T06:22:26;5.70;;;3.60;;
3849;SDS011;1940;51.052;13.678;2022-12-07T06:24:51;6.13;;;3.77;;
3849;SDS011;1940;51.052;13.678;2022-12-07T06:27:17;6.83;;;4.00;;
3849;SDS011;1940;51.052;13.678;2022-12-07T06:29:42;8.47;;;4.30;;
3849;SDS011;1940;51.052;13.678;2022-12-07T06:32:08;5.77;;;3.70;;
3849;SDS011;1940;51.052;13.678;2022-12-07T06:34:34;5.30;;;3.43;;
3849;SDS011;1940;51.052;13.678;2022-12-07T06:36:59;7.70;;;4.20;;
3849;SDS011;1940;51.052;13.678;2022-12-07T06:39:26;5.83;;;3.80;;
3849;SDS011;1940;51.052;13.678;2022-12-07T06:41:52;6.07;;;3.90;;
3849;SDS011;1940;51.052;13.678;2022-12-07T06:44:19;7.57;;;4.37;;
3849;SDS011;1940;51.052;13.678;2022-12-07T06:46:45;7.80;;;4.10;;
3849;SDS011;1940;51.052;13.678;2022-12-07T06:49:12;5.37;;;3.50;;
3849;SDS011;1940;51.052;13.678;2022-12-07T06:51:37;6.93;;;4.20;;
3849;SDS011;1940;51.052;13.678;2022-12-07T06:54:06;8.13;;;4.60;;
3849;SDS011;1940;51.052;13.678;2022-12-07T06:56:33;7.70;;;4.37;;
3849;SDS011;1940;51.052;13.678;2022-12-07T06:58:58;7.77;;;4.60;;
3849;SDS011;1940;51.052;13.678;2022-12-07T07:01:24;8.73;;;5.30;;
3849;SDS011;1940;51.052;13.678;2022-12-07T07:03:49;10.53;;;4.93;;
3849;SDS011;1940;51.052;13.678;2022-12-07T07:06:15;9.00;;;5.03;;
3849;SDS011;1940;51.052;13.678;2022-12-07T07:08:41;10.60;;;5.67;;
3849;SDS011;1940;51.052;13.678;2022-12-07T07:11:07;7.80;;;4.80;;
3849;SDS011;1940;51.052;13.678;2022-12-07T07:13:33;13.13;;;6.57;;
3849;SDS011;1940;51.052;13.678;2022-12-07T07:15:59;11.70;;;6.07;;
3849;SDS011;1940;51.052;13.678;2022-12-07T07:18:25;9.73;;;5.47;;
3849;SDS011;1940;51.052;13.678;2022-12-07T07:20:51;12.00;;;4.60;;
3849;SDS011;1940;51.052;13.678;2022-12-07T07:23:17;10.23;;;4.97;;
3849;SDS011;1940;51.052;13.678;2022-12-07T07:25:44;11.17;;;5.37;;
3849;SDS011;1940;51.052;13.678;2022-12-07T07:28:10;11.37;;;5.87;;
3849;SDS011;1940;51.052;13.678;2022-12-07T07:30:35;11.63;;;5.20;;
3849;SDS011;1940;51.052;13.678;2022-12-07T07:33:01;10.50;;;4.63;;
3849;SDS011;1940;51.052;13.678;2022-12-07T07:35:29;7.10;;;4.53;;
3849;SDS011;1940;51.052;13.678;2022-12-07T07:37:55;7.03;;;4.50;;
3849;SDS011;1940;51.052;13.678;2022-12-07T07:40:21;6.37;;;3.90;;
3849;SDS011;1940;51.052;13.678;2022-12-07T07:42:47;9.87;;;4.70;;
3849;SDS011;1940;51.052;13.678;2022-12-07T07:45:13;7.40;;;4.13;;
3849;SDS011;1940;51.052;13.678;2022-12-07T07:47:39;7.50;;;4.97;;
3849;SDS011;1940;51.052;13.678;2022-12-07T07:50:05;7.67;;;4.97;;
3849;SDS011;1940;51.052;13.678;2022-12-07T07:52:31;7.57;;;5.30;;
3849;SDS011;1940;51.052;13.678;2022-12-07T07:54:56;9.43;;;5.53;;
3849;SDS011;1940;51.052;13.678;2022-12-07T07:57:22;7.83;;;4.70;;
3849;SDS011;1940;51.052;13.678;2022-12-07T07:59:47;8.77;;;5.37;;
3849;SDS011;1940;51.052;13.678;2022-12-07T08:02:14;8.53;;;5.37;;
3849;SDS011;1940;51.052;13.678;2022-12-07T08:04:42;10.50;;;6.30;;
3849;SDS011;1940;51.052;13.678;2022-12-07T08:07:08;12.70;;;6.27;;
3849;SDS011;1940;51.052;13.678;2022-12-07T08:09:33;11.40;;;5.67;;
3849;SDS011;1940;51.052;13.678;2022-12-07T08:11:59;11.83;;;6.83;;
3849;SDS011;1940;51.052;13.678;2022-12-07T08:14:25;10.40;;;6.20;;
3849;SDS011;1940;51.052;13.678;2022-12-07T08:16:52;10.33;;;5.80;;
3849;SDS011;1940;51.052;13.678;2022-12-07T08:19:18;9.97;;;6.23;;
3849;SDS011;1940;51.052;13.678;2022-12-07T08:21:43;11.67;;;6.50;;
3849;SDS011;1940;51.052;13.678;2022-12-07T08:24:09;11.30;;;6.70;;
3849;SDS011;1940;51.052;13.678;2022-12-07T08:26:35;11.10;;;6.40;;
3849;SDS011;1940;51.052;13.678;2022-12-07T08:29:00;9.50;;;6.40;;
3849;SDS011;1940;51.052;13.678;2022-12-07T08:31:26;13.30;;;7.03;;
3849;SDS011;1940;51.052;13.678;2022-12-07T08:33:52;12.13;;;6.53;;
3849;SDS011;1940;51.052;13.678;2022-12-07T08:36:18;10.20;;;5.93;;
3849;SDS011;1940;51.052;13.678;2022-12-07T08:38:44;8.63;;;5.53;;
3849;SDS011;1940;51.052;13.678;2022-12-07T08:41:10;9.93;;;5.63;;
3849;SDS011;1940;51.052;13.678;2022-12-07T08:43:35;8.00;;;5.43;;
3849;SDS011;1940;51.052;13.678;2022-12-07T08:46:21;11.10;;;5.83;;
3849;SDS011;1940;51.052;13.678;2022-12-07T08:48:58;11.37;;;5.80;;
3849;SDS011;1940;51.052;13.678;2022-12-07T08:51:29;8.30;;;5.40;;
3849;SDS011;1940;51.052;13.678;2022-12-07T08:53:55;9.17;;;5.90;;
3849;SDS011;1940;51.052;13.678;2022-12-07T08:56:25;10.40;;;5.67;;
3849;SDS011;1940;51.052;13.678;2022-12-07T08:58:51;12.07;;;5.83;;
3849;SDS011;1940;51.052;13.678;2022-12-07T09:01:17;9.90;;;5.83;;
3849;SDS011;1940;51.052;13.678;2022-12-07T09:03:43;8.40;;;5.10;;
3849;SDS011;1940;51.052;13.678;2022-12-07T09:06:08;9.07;;;5.57;;
3849;SDS011;1940;51.052;13.678;2022-12-07T09:08:45;8.80;;;5.10;;
3849;SDS011;1940;51.052;13.678;2022-12-07T09:11:14;9.17;;;5.17;;
3849;SDS011;1940;51.052;13.678;2022-12-07T09:13:39;7.00;;;5.27;;
3849;SDS011;1940;51.052;13.678;2022-12-07T09:16:05;8.73;;;5.20;;
3849;SDS011;1940;51.052;13.678;2022-12-07T09:18:31;8.57;;;4.30;;
3849;SDS011;1940;51.052;13.678;2022-12-07T09:20:57;8.43;;;5.33;;
3849;SDS011;1940;51.052;13.678;2022-12-07T09:23:22;8.40;;;4.90;;
3849;SDS011;1940;51.052;13.678;2022-12-07T09:25:48;6.83;;;4.90;;
3849;SDS011;1940;51.052;13.678;2022-12-07T09:28:13;9.20;;;5.10;;
3849;SDS011;1940;51.052;13.678;2022-12-07T09:30:44;9.10;;;4.87;;
3849;SDS011;1940;51.052;13.678;2022-12-07T09:33:11;6.60;;;4.43;;
3849;SDS011;1940;51.052;13.678;2022-12-07T09:35:37;6.00;;;4.07;;
3849;SDS011;1940;51.052;13.678;2022-12-07T09:38:03;6.47;;;4.30;;
3849;SDS011;1940;51.052;13.678;2022-12-07T09:40:28;8.63;;;4.20;;
3849;SDS011;1940;51.052;13.678;2022-12-07T09:42:54;7.00;;;4.10;;
3849;SDS011;1940;51.052;13.678;2022-12-07T09:45:25;11.60;;;3.93;;
3849;SDS011;1940;51.052;13.678;2022-12-07T09:47:59;13.33;;;4.90;;
3849;SDS011;1940;51.052;13.678;2022-12-07T09:50:26;5.77;;;3.73;;
3849;SDS011;1940;51.052;13.678;2022-12-07T09:52:53;5.07;;;3.63;;
3849;SDS011;1940;51.052;13.678;2022-12-07T09:55:27;6.30;;;3.90;;
3849;SDS011;1940;51.052;13.678;2022-12-07T09:57:55;8.97;;;4.17;;
3849;SDS011;1940;51.052;13.678;2022-12-07T10:00:22;7.07;;;4.17;;
3849;SDS011;1940;51.052;13.678;2022-12-07T10:02:56;5.17;;;3.43;;
3849;SDS011;1940;51.052;13.678;2022-12-07T10:05:35;7.63;;;4.33;;
3849;SDS011;1940;51.052;13.678;2022-12-07T10:08:04;7.90;;;3.90;;
3849;SDS011;1940;51.052;13.678;2022-12-07T10:10:33;6.00;;;3.70;;
3849;SDS011;1940;51.052;13.678;2022-12-07T10:13:04;6.10;;;3.43;;
3849;SDS011;1940;51.052;13.678;2022-12-07T10:15:51;5.83;;;3.63;;
3849;SDS011;1940;51.052;13.678;2022-12-07T10:18:20;7.90;;;4.37;;
3849;SDS011;1940;51.052;13.678;2022-12-07T10:23:40;6.63;;;3.80;;
3849;SDS011;1940;51.052;13.678;2022-12-07T10:26:27;7.40;;;4.40;;
3849;SDS011;1940;51.052;13.678;2022-12-07T10:31:43;7.37;;;4.23;;
3849;SDS011;1940;51.052;13.678;2022-12-07T10:34:44;8.50;;;4.50;;
3849;SDS011;1940;51.052;13.678;2022-12-07T10:37:21;6.73;;;3.93;;
3849;SDS011;1940;51.052;13.678;2022-12-07T10:39:52;6.47;;;4.00;;
3849;SDS011;1940;51.052;13.678;2022-12-07T10:42:20;10.53;;;4.40;;
3849;SDS011;1940;51.052;13.678;2022-12-07T10:44:47;12.73;;;4.53;;
3849;SDS011;1940;51.052;13.678;2022-12-07T10:47:22;9.00;;;5.20;;
3849;SDS011;1940;51.052;13.678;2022-12-07T10:52:58;7.97;;;4.57;;
3849;SDS011;1940;51.052;13.678;2022-12-07T10:58:17;7.43;;;4.43;;
3849;SDS011;1940;51.052;13.678;2022-12-07T11:01:10;8.97;;;5.20;;
3849;SDS011;1940;51.052;13.678;2022-12-07T11:03:45;7.00;;;4.57;;
3849;SDS011;1940;51.052;13.678;2022-12-07T11:17:29;8.23;;;4.53;;
3849;SDS011;1940;51.052;13.678;2022-12-07T11:20:28;7.80;;;4.50;;
3849;SDS011;1940;51.052;13.678;2022-12-07T11:23:18;11.47;;;4.60;;
3849;SDS011;1940;51.052;13.678;2022-12-07T11:26:14;9.10;;;4.07;;
3849;SDS011;1940;51.052;13.678;2022-12-07T11:28:56;8.70;;;5.10;;
3849;SDS011;1940;51.052;13.678;2022-12-07T11:31:31;7.63;;;4.10;;
3849;SDS011;1940;51.052;13.678;2022-12-07T11:34:19;6.60;;;4.30;;
3849;SDS011;1940;51.052;13.678;2022-12-07T11:36:51;7.33;;;4.40;;
3849;SDS011;1940;51.052;13.678;2022-12-07T11:41:59;5.90;;;4.00;;
3849;SDS011;1940;51.052;13.678;2022-12-07T11:44:32;6.47;;;4.63;;
3849;SDS011;1940;51.052;13.678;2022-12-07T11:49:52;10.63;;;5.10;;
3849;SDS011;1940;51.052;13.678;2022-12-07T11:52:30;7.00;;;4.43;;
3849;SDS011;1940;51.052;13.678;2022-12-07T11:55:14;10.23;;;5.20;;
3849;SDS011;1940;51.052;13.678;2022-12-07T11:57:58;9.53;;;5.33;;
3849;SDS011;1940;51.052;13.678;2022-12-07T12:00:34;10.10;;;4.87;;
3849;SDS011;1940;51.052;13.678;2022-12-07T12:03:03;8.97;;;5.27;;
3849;SDS011;1940;51.052;13.678;2022-12-07T12:05:35;8.90;;;4.80;;
3849;SDS011;1940;51.052;13.678;2022-12-07T12:08:21;9.43;;;4.97;;
3849;SDS011;1940;51.052;13.678;2022-12-07T12:11:15;6.60;;;4.10;;
3849;SDS011;1940;51.052;13.678;2022-12-07T12:14:00;9.03;;;4.10;;
3849;SDS011;1940;51.052;13.678;2022-12-07T12:19:42;7.67;;;4.33;;
3849;SDS011;1940;51.052;13.678;2022-12-07T12:22:24;6.67;;;4.40;;
3849;SDS011;1940;51.052;13.678;2022-12-07T12:25:15;7.50;;;3.70;;
3849;SDS011;1940;51.052;13.678;2022-12-07T12:27:52;10.03;;;4.80;;
3849;SDS011;1940;51.052;13.678;2022-12-07T12:30:39;6.33;;;4.23;;
3849;SDS011;1940;51.052;13.678;2022-12-07T12:33:25;4.07;;;3.37;;
3849;SDS011;1940;51.052;13.678;2022-12-07T12:38:48;3.40;;;2.50;;
3849;SDS011;1940;51.052;13.678;2022-12-07T12:47:37;6.10;;;2.90;;
3849;SDS011;1940;51.052;13.678;2022-12-07T12:50:18;11.83;;;3.00;;
3849;SDS011;1940;51.052;13.678;2022-12-07T12:53:26;5.70;;;3.03;;
3849;SDS011;1940;51.052;13.678;2022-12-07T13:00:43;6.67;;;3.97;;
3849;SDS011;1940;51.052;13.678;2022-12-07T13:03:31;12.90;;;5.17;;
3849;SDS011;1940;51.052;13.678;2022-12-07T13:08:45;7.60;;;4.83;;
3849;SDS011;1940;51.052;13.678;2022-12-07T13:17:09;8.00;;;3.67;;
3849;SDS011;1940;51.052;13.678;2022-12-07T13:24:57;7.20;;;3.80;;
3849;SDS011;1940;51.052;13.678;2022-12-07T13:27:32;5.43;;;3.33;;
3849;SDS011;1940;51.052;13.678;2022-12-07T13:29:59;4.03;;;3.00;;
3849;SDS011;1940;51.052;13.678;2022-12-07T13:32:26;6.80;;;3.23;;
3849;SDS011;1940;51.052;13.678;2022-12-07T13:34:57;4.37;;;3.03;;
3849;SDS011;1940;51.052;13.678;2022-12-07T13:37:30;3.70;;;2.77;;
3849;SDS011;1940;51.052;13.678;2022-12-07T13:39:58;6.00;;;3.00;;
3849;SDS011;1940;51.052;13.678;2022-12-07T13:42:29;4.50;;;3.53;;
3849;SDS011;1940;51.052;13.678;2022-12-07T13:44:57;9.37;;;4.20;;
3849;SDS011;1940;51.052;13.678;2022-12-07T13:49:59;6.67;;;4.27;;
3849;SDS011;1940;51.052;13.678;2022-12-07T13:52:26;8.60;;;4.93;;
3849;SDS011;1940;51.052;13.678;2022-12-07T13:57:31;11.67;;;5.50;;
3849;SDS011;1940;51.052;13.678;2022-12-07T14:00:00;6.33;;;4.10;;
3849;SDS011;1940;51.052;13.678;2022-12-07T14:02:28;10.43;;;4.97;;
3849;SDS011;1940;51.052;13.678;2022-12-07T14:08:02;10.80;;;5.17;;
3849;SDS011;1940;51.052;13.678;2022-12-07T14:10:36;7.10;;;4.50;;
3849;SDS011;1940;51.052;13.678;2022-12-07T14:13:50;7.20;;;4.17;;
3849;SDS011;1940;51.052;13.678;2022-12-07T14:15:59;8.60;;;4.10;;
3849;SDS011;1940;51.052;13.678;2022-12-07T14:18:29;7.37;;;4.20;;
3849;SDS011;1940;51.052;13.678;2022-12-07T14:21:04;7.10;;;4.30;;
3849;SDS011;1940;51.052;13.678;2022-12-07T14:23:33;6.33;;;4.17;;
3849;SDS011;1940;51.052;13.678;2022-12-07T14:26:05;7.47;;;4.10;;
3849;SDS011;1940;51.052;13.678;2022-12-07T14:28:38;6.40;;;3.40;;
3849;SDS011;1940;51.052;13.678;2022-12-07T14:31:08;5.37;;;3.53;;
3849;SDS011;1940;51.052;13.678;2022-12-07T14:33:40;6.87;;;4.03;;
3849;SDS011;1940;51.052;13.678;2022-12-07T14:36:08;6.40;;;4.07;;
3849;SDS011;1940;51.052;13.678;2022-12-07T14:38:35;7.77;;;3.87;;
3849;SDS011;1940;51.052;13.678;2022-12-07T14:41:00;7.63;;;4.03;;
3849;SDS011;1940;51.052;13.678;2022-12-07T14:43:44;5.70;;;3.40;;
3849;SDS011;1940;51.052;13.678;2022-12-07T14:46:10;6.93;;;3.60;;
3849;SDS011;1940;51.052;13.678;2022-12-07T14:48:36;4.70;;;3.50;;
3849;SDS011;1940;51.052;13.678;2022-12-07T14:51:01;8.93;;;3.20;;
3849;SDS011;1940;51.052;13.678;2022-12-07T14:53:33;5.17;;;3.13;;
3849;SDS011;1940;51.052;13.678;2022-12-07T14:56:01;4.87;;;2.73;;
3849;SDS011;1940;51.052;13.678;2022-12-07T14:58:30;3.43;;;2.50;;
3849;SDS011;1940;51.052;13.678;2022-12-07T15:00:56;5.50;;;2.43;;
3849;SDS011;1940;51.052;13.678;2022-12-07T15:03:21;6.33;;;2.83;;
3849;SDS011;1940;51.052;13.678;2022-12-07T15:05:47;4.23;;;2.60;;
3849;SDS011;1940;51.052;13.678;2022-12-07T15:08:12;3.40;;;2.20;;
3849;SDS011;1940;51.052;13.678;2022-12-07T15:10:38;5.20;;;2.67;;
3849;SDS011;1940;51.052;13.678;2022-12-07T15:13:05;2.97;;;2.30;;
3849;SDS011;1940;51.052;13.678;2022-12-07T15:15:50;4.70;;;2.23;;
3849;SDS011;1940;51.052;13.678;2022-12-07T15:18:17;3.70;;;2.40;;
3849;SDS011;1940;51.052;13.678;2022-12-07T15:20:44;3.70;;;2.53;;
3849;SDS011;1940;51.052;13.678;2022-12-07T15:23:10;2.20;;;2.00;;
3849;SDS011;1940;51.052;13.678;2022-12-07T15:25:36;5.60;;;2.30;;
3849;SDS011;1940;51.052;13.678;2022-12-07T15:28:05;3.87;;;2.60;;
3849;SDS011;1940;51.052;13.678;2022-12-07T15:30:30;2.77;;;2.23;;
3849;SDS011;1940;51.052;13.678;2022-12-07T15:32:56;2.60;;;2.17;;
3849;SDS011;1940;51.052;13.678;2022-12-07T15:35:21;4.20;;;2.23;;
3849;SDS011;1940;51.052;13.678;2022-12-07T15:37:47;5.33;;;2.30;;
3849;SDS011;1940;51.052;13.678;2022-12-07T15:40:13;2.77;;;1.80;;
3849;SDS011;1940;51.052;13.678;2022-12-07T15:42:39;10.33;;;2.53;;
3849;SDS011;1940;51.052;13.678;2022-12-07T15:45:05;3.57;;;2.30;;
3849;SDS011;1940;51.052;13.678;2022-12-07T15:47:36;5.57;;;2.60;;
3849;SDS011;1940;51.052;13.678;2022-12-07T15:50:04;2.17;;;1.70;;
3849;SDS011;1940;51.052;13.678;2022-12-07T15:52:32;9.63;;;2.30;;
3849;SDS011;1940;51.052;13.678;2022-12-07T15:54:57;7.10;;;2.57;;
3849;SDS011;1940;51.052;13.678;2022-12-07T15:57:25;6.20;;;3.00;;
3849;SDS011;1940;51.052;13.678;2022-12-07T15:59:51;4.90;;;2.83;;
3849;SDS011;1940;51.052;13.678;2022-12-07T16:02:17;9.43;;;2.80;;
3849;SDS011;1940;51.052;13.678;2022-12-07T16:04:42;3.53;;;2.87;;
3849;SDS011;1940;51.052;13.678;2022-12-07T16:07:08;5.73;;;3.27;;
3849;SDS011;1940;51.052;13.678;2022-12-07T16:09:33;5.73;;;3.40;;
3849;SDS011;1940;51.052;13.678;2022-12-07T16:11:59;4.60;;;3.23;;
3849;SDS011;1940;51.052;13.678;2022-12-07T16:14:24;6.07;;;3.80;;
3849;SDS011;1940;51.052;13.678;2022-12-07T16:16:50;5.03;;;3.17;;
3849;SDS011;1940;51.052;13.678;2022-12-07T16:19:16;8.00;;;3.33;;
3849;SDS011;1940;51.052;13.678;2022-12-07T16:21:41;7.63;;;2.97;;
3849;SDS011;1940;51.052;13.678;2022-12-07T16:24:07;6.00;;;2.73;;
3849;SDS011;1940;51.052;13.678;2022-12-07T16:26:35;3.50;;;2.63;;
3849;SDS011;1940;51.052;13.678;2022-12-07T16:29:00;3.57;;;2.30;;
3849;SDS011;1940;51.052;13.678;2022-12-07T16:31:26;5.13;;;3.20;;
3849;SDS011;1940;51.052;13.678;2022-12-07T16:33:53;6.40;;;3.63;;
3849;SDS011;1940;51.052;13.678;2022-12-07T16:36:19;4.13;;;2.50;;
3849;SDS011;1940;51.052;13.678;2022-12-07T16:38:47;5.67;;;3.33;;
3849;SDS011;1940;51.052;13.678;2022-12-07T16:41:13;5.80;;;3.30;;